Bear Creek, WI

10:57 PM CDT on September 17, 2014 (GMT -0500)
Shawano | Change Station
CLOSE
Current Station
Airport
Location: Shawano,
Elevation: 814 ft
Nearby Weather Stations

Elev 814 ft 44.79 °N, 88.56 °W | Updated 22 minutes ago

Overcast
Overcast
52 °F
Feels Like 52 °F
N
12
Wind Variable Wind from ENE
Gusts 20 mph

Today
High -- | Low -- °F
--% Chance of Precip.
Yesterday
High -- | Low -- °F
Precip. -- in
6:36 AM 7:01 PM
Waning Crescent, 30% visible
Pressure 30.08 in
Visibility 10.0 miles
Clouds Mostly Cloudy 10000 ft
Dew Point 45 °F
Humidity 76%
Rainfall 0.00 in
Snow Depth Not available.
UV 0 out of 12
Pollen 4.00 out of 12
Air Quality Not available.
Flu Activity Not available.
METAR KEZS 180335Z AUTO 06010G17KT 10SM BKN100 11/07 A3008 RMK AO2 T01140073

More Conditions Fewer Conditions

Pressure 30.08 in
Visibility 10.0 miles
Clouds Mostly Cloudy 10000 ft
Dew Point 45 °F
Humidity 76%
Rainfall 0.00 in
Snow Depth Not available.
UV 0 out of 12
Pollen 4.00 out of 12
Air Quality Not available.
Flu Activity Not available.
METAR KEZS 180335Z AUTO 06010G17KT 10SM BKN100 11/07 A3008 RMK AO2 T01140073

More Conditions Fewer Conditions

10-Day Weather Forecast

Almanac

Astronomy

Sep. 17, 2014 Rise Set
Actual Time 6:36 AM CDT 7:01 PM CDT
Civil Twilight 6:06 AM CDT 7:30 PM CDT
Nautical Twilight 5:32 AM CDT 8:05 PM CDT
Astronomical Twilight 4:56 AM CDT 8:40 PM CDT
Moon 12:25 AM CDT (9/17) 3:21 PM CDT (9/17)
Length of Visible Light 13h 23m
Length of Day
12h 25m
Tomorrow will be 3m 3s shorter.
Waning Crescent, 30% of the Moon is Illuminated
Today
Waning Crescent
Sep 24
New
Oct 1
First Quarter
Oct 8
Full
Oct 15
Last Quarter

Today's Extremes

State Highs State Lows

Community

WunderPhotos

Upload Photos

1,754,283 photos uploaded!

Nearby

Air Quality

  Air Quality AQ Index Pollutant
Yesterday Good
OZONE
Wednesday Good
OZONE
Wednesday Good
PM2.5
Thursday Good
OZONE
Thursday Good
PM2.5
Friday Good
OZONE
Friday Good
PM2.5
Saturday Moderate
OZONE
Saturday Moderate
PM2.5

Snow Depth

Station Depth Elevation
No new snow has been reported.

Earthquake Activity

City Distance Mag. Time & Date
No recent earthquake activity has been reported nearby.
Minimum magnitude displayed is 2.5.

Coastal Water Temperatures

Place Temperature
No Stations Reporting

Nearby Weather Stations